Time;durP1;ratioP1;P1;durP2;ratioP2;P2;SDS_P1;SDS_P2;PMS_P1;PMS_P2;Temp;Humidity;BMP_temperature;BMP_pressure;BME280_temperature;BME280_humidity;BME280_pressure;Samples;Min_cycle;Max_cycle;Signal;HPM_P1;HPM_P2
2021/06/20 00:01:03;;;;;;;47.33;23.67;;;16.70;99.90;;;;;;5145481;27;20436;-68
2021/06/20 00:03:32;;;;;;;50.23;22.83;;;16.70;99.90;;;;;;5140326;27;20241;-68
2021/06/20 00:06:11;;;;;;;53.03;24.13;;;16.70;99.90;;;;;;5149343;27;20184;-68
2021/06/20 00:08:40;;;;;;;52.23;24.73;;;16.70;99.90;;;;;;5130194;27;20219;-68
2021/06/20 00:11:09;;;;;;;54.57;25.13;;;16.70;99.90;;;;;;5143832;27;20178;-68
2021/06/20 00:13:37;;;;;;;53.53;26.23;;;16.70;99.90;;;;;;5147543;27;20186;-67
2021/06/20 00:16:05;;;;;;;54.53;26.63;;;16.70;99.90;;;;;;5147029;27;20259;-68
2021/06/20 00:18:34;;;;;;;63.30;28.40;;;16.70;99.90;;;;;;5145022;27;20239;-68
2021/06/20 00:21:04;;;;;;;65.23;29.47;;;16.70;99.90;;;;;;5148435;27;20213;-68
2021/06/20 00:23:32;;;;;;;69.77;29.10;;;16.70;99.90;;;;;;5159843;27;20186;-68
2021/06/20 00:26:01;;;;;;;67.70;29.57;;;16.70;99.90;;;;;;5147750;27;20262;-68
2021/06/20 00:28:29;;;;;;;65.67;29.00;;;16.70;99.90;;;;;;5147562;27;20223;-69
2021/06/20 00:30:58;;;;;;;68.77;29.33;;;16.70;99.90;;;;;;5143562;27;20207;-69
2021/06/20 00:33:27;;;;;;;66.97;29.57;;;16.70;99.90;;;;;;5140514;27;20176;-68
2021/06/20 00:35:55;;;;;;;67.43;30.83;;;16.70;99.90;;;;;;5158944;27;20405;-68
2021/06/20 00:38:25;;;;;;;68.50;30.67;;;16.70;99.90;;;;;;5145901;27;20185;-68
2021/06/20 00:40:56;;;;;;;75.13;30.37;;;16.70;99.90;;;;;;5142665;27;20361;-68
2021/06/20 00:43:24;;;;;;;68.30;32.00;;;16.70;99.90;;;;;;5147338;27;20196;-68
2021/06/20 00:45:52;;;;;;;71.67;31.20;;;16.60;99.90;;;;;;5146286;27;20382;-68
2021/06/20 00:48:21;;;;;;;74.80;31.67;;;16.60;99.90;;;;;;5147786;27;20184;-68
2021/06/20 00:50:49;;;;;;;66.43;29.73;;;16.70;99.90;;;;;;5149749;27;20178;-68
2021/06/20 00:53:19;;;;;;;73.43;30.23;;;16.60;99.90;;;;;;5147522;27;20182;-68
2021/06/20 00:55:50;;;;;;;78.67;31.83;;;16.60;99.90;;;;;;5147484;27;20182;-68
2021/06/20 00:58:21;;;;;;;77.00;31.73;;;16.60;99.90;;;;;;5147930;27;20261;-68
2021/06/20 01:00:52;;;;;;;84.30;31.13;;;16.70;99.90;;;;;;5143013;27;20187;-68
2021/06/20 01:03:39;;;;;;;72.77;30.50;;;16.60;99.90;;;;;;5143304;27;20180;-68
2021/06/20 01:06:07;;;;;;;79.03;31.93;;;16.60;99.90;;;;;;5153053;27;20222;-68
2021/06/20 01:08:38;;;;;;;78.83;30.50;;;16.50;99.90;;;;;;5147453;27;20190;-68
2021/06/20 01:11:08;;;;;;;89.47;31.40;;;16.40;99.90;;;;;;5142824;27;20186;-68
2021/06/20 01:13:36;;;;;;;77.73;31.30;;;16.50;99.90;;;;;;5144759;27;20207;-68
2021/06/20 01:16:05;;;;;;;82.87;31.73;;;16.40;99.90;;;;;;5145053;27;20182;-68
2021/06/20 01:18:34;;;;;;;90.20;31.80;;;16.40;99.90;;;;;;5144028;27;20209;-68
2021/06/20 01:21:02;;;;;;;87.23;31.17;;;16.40;99.90;;;;;;5142216;27;20421;-68
2021/06/20 01:23:32;;;;;;;85.13;30.93;;;16.40;99.90;;;;;;5146798;27;20193;-68
2021/06/20 01:26:05;;;;;;;87.67;30.23;;;16.40;99.90;;;;;;5143493;27;20263;-68
2021/06/20 01:28:41;;;;;;;86.37;30.87;;;16.40;99.90;;;;;;5144216;27;20179;-68
2021/06/20 01:31:12;;;;;;;86.50;31.13;;;16.50;99.90;;;;;;5136003;27;20374;-69
2021/06/20 01:33:40;;;;;;;77.67;30.20;;;16.50;99.90;;;;;;5142022;27;20395;-67
2021/06/20 01:36:11;;;;;;;72.60;28.37;;;16.50;99.90;;;;;;5146035;27;20199;-68
2021/06/20 01:38:41;;;;;;;86.33;30.27;;;16.50;99.90;;;;;;5148025;27;20190;-69
2021/06/20 01:41:10;;;;;;;93.93;32.90;;;16.60;99.90;;;;;;5144395;27;20441;-68
2021/06/20 01:43:38;;;;;;;86.53;31.23;;;16.60;99.90;;;;;;5144595;27;20379;-69
2021/06/20 01:46:07;;;;;;;100.37;31.77;;;16.60;99.90;;;;;;5137362;27;20306;-68
2021/06/20 01:48:36;;;;;;;85.43;31.77;;;16.60;99.90;;;;;;5138789;27;20395;-69
2021/06/20 01:51:07;;;;;;;79.83;31.13;;;16.70;99.90;;;;;;5141801;27;20383;-68
2021/06/20 01:53:36;;;;;;;79.33;31.23;;;16.70;99.90;;;;;;5148528;27;20206;-68
2021/06/20 01:56:06;;;;;;;94.63;35.57;;;16.60;99.90;;;;;;5147372;27;20169;-68
2021/06/20 01:58:34;;;;;;;96.87;35.80;;;16.70;99.90;;;;;;5143741;27;20178;-68
2021/06/20 02:01:05;;;;;;;87.27;33.70;;;16.70;99.90;;;;;;5142883;28;20366;-68
2021/06/20 02:03:36;;;;;;;82.87;34.80;;;16.70;99.90;;;;;;5134366;27;20283;-67
2021/06/20 02:06:05;;;;;;;94.10;35.53;;;16.70;99.90;;;;;;5139121;27;20235;-68
2021/06/20 02:08:36;;;;;;;80.93;33.97;;;16.60;99.90;;;;;;5141314;27;20231;-68
2021/06/20 02:11:06;;;;;;;74.80;33.93;;;16.70;99.90;;;;;;5138505;27;20170;-68
2021/06/20 02:13:34;;;;;;;83.30;33.23;;;16.70;99.90;;;;;;5155764;27;20327;-68
2021/06/20 02:16:05;;;;;;;82.47;35.67;;;16.70;99.90;;;;;;5143675;27;20227;-68
2021/06/20 02:18:34;;;;;;;100.13;37.40;;;16.70;99.90;;;;;;5143811;27;20185;-68
2021/06/20 02:21:02;;;;;;;91.10;36.43;;;16.70;99.90;;;;;;5141023;27;20208;-68
2021/06/20 02:23:30;;;;;;;92.23;35.87;;;16.70;99.90;;;;;;5148358;27;20275;-68
2021/06/20 02:25:59;;;;;;;91.47;36.23;;;16.70;99.90;;;;;;5143871;27;20451;-68
2021/06/20 02:28:29;;;;;;;95.63;36.27;;;16.70;99.90;;;;;;5151193;27;20174;-68
2021/06/20 02:30:57;;;;;;;91.30;35.67;;;16.70;99.90;;;;;;5142310;27;20186;-68
2021/06/20 02:33:26;;;;;;;100.43;36.90;;;16.70;99.90;;;;;;5144115;27;20186;-68
2021/06/20 02:35:57;;;;;;;96.37;36.67;;;16.70;99.90;;;;;;5144609;28;20239;-68
2021/06/20 02:38:26;;;;;;;107.67;37.90;;;16.70;99.90;;;;;;5145305;27;20178;-68
2021/06/20 02:40:54;;;;;;;101.50;36.67;;;16.70;99.90;;;;;;5156064;27;20235;-68
2021/06/20 02:43:22;;;;;;;119.17;39.77;;;16.70;99.90;;;;;;5146899;27;20219;-68
2021/06/20 02:45:52;;;;;;;111.43;40.43;;;16.70;99.90;;;;;;5147397;27;20178;-68
2021/06/20 02:48:21;;;;;;;111.57;37.57;;;16.70;99.90;;;;;;5140963;27;20374;-69
2021/06/20 02:50:49;;;;;;;109.33;39.77;;;16.70;99.90;;;;;;5146500;27;20277;-68
2021/06/20 02:53:17;;;;;;;108.53;38.90;;;16.70;99.90;;;;;;5150286;27;20205;-68
2021/06/20 02:55:46;;;;;;;106.23;39.37;;;16.70;99.90;;;;;;5148381;27;20477;-68
2021/06/20 02:58:14;;;;;;;98.50;38.63;;;16.70;99.90;;;;;;5137522;27;20179;-68
2021/06/20 03:00:42;;;;;;;104.43;39.07;;;16.80;99.90;;;;;;5146106;27;20176;-68
2021/06/20 03:03:12;;;;;;;100.07;38.93;;;16.80;99.90;;;;;;5146078;27;20206;-68
2021/06/20 03:05:40;;;;;;;103.23;40.83;;;16.80;99.90;;;;;;5151514;27;20187;-68
2021/06/20 03:08:09;;;;;;;106.00;39.03;;;16.80;99.90;;;;;;5147027;27;20189;-68
2021/06/20 03:10:37;;;;;;;104.40;39.53;;;16.80;99.90;;;;;;5130235;27;20232;-68
2021/06/20 03:13:08;;;;;;;112.03;41.73;;;16.80;99.90;;;;;;5146551;27;20186;-68
2021/06/20 03:15:38;;;;;;;121.80;42.80;;;16.80;99.90;;;;;;5151102;27;20317;-68
2021/06/20 03:18:07;;;;;;;111.17;42.57;;;16.80;99.90;;;;;;5153090;27;20178;-68
2021/06/20 03:20:36;;;;;;;123.97;42.97;;;16.80;99.90;;;;;;5152430;27;20373;-68
2021/06/20 03:23:09;;;;;;;123.60;44.43;;;16.80;99.90;;;;;;5148455;27;20221;-68
2021/06/20 03:25:38;;;;;;;128.67;46.77;;;16.80;99.90;;;;;;5153204;27;20214;-67
2021/06/20 03:28:08;;;;;;;124.63;45.47;;;16.80;99.90;;;;;;5150139;27;20190;-68
2021/06/20 03:30:37;;;;;;;138.57;46.30;;;16.80;99.90;;;;;;5148881;27;20372;-68
2021/06/20 03:33:06;;;;;;;138.73;47.23;;;16.70;99.90;;;;;;5148079;27;20401;-68
2021/06/20 03:35:36;;;;;;;137.60;47.33;;;16.80;99.90;;;;;;5153511;27;20206;-67
2021/06/20 03:38:04;;;;;;;159.20;50.23;;;16.80;99.90;;;;;;5147557;27;20243;-67
2021/06/20 03:40:32;;;;;;;161.70;51.03;;;16.80;99.90;;;;;;5146171;27;20186;-67
2021/06/20 03:43:01;;;;;;;158.60;49.60;;;16.80;99.90;;;;;;5147492;27;20217;-68
2021/06/20 03:45:29;;;;;;;162.33;50.37;;;16.80;99.90;;;;;;5149019;27;20174;-68
2021/06/20 03:47:58;;;;;;;152.00;49.37;;;16.70;99.90;;;;;;5146069;27;20186;-68
2021/06/20 03:50:27;;;;;;;142.33;46.67;;;16.70;99.90;;;;;;5143685;27;20187;-68
2021/06/20 03:52:57;;;;;;;134.47;47.37;;;16.70;99.90;;;;;;5148123;27;20257;-68
2021/06/20 03:55:25;;;;;;;140.50;48.67;;;16.70;99.90;;;;;;5142181;27;20187;-68
2021/06/20 03:57:54;;;;;;;150.30;49.30;;;16.70;99.90;;;;;;5152596;27;20192;-69
2021/06/20 04:00:22;;;;;;;138.37;48.03;;;16.60;99.90;;;;;;5144382;27;20176;-67
2021/06/20 04:02:55;;;;;;;154.97;48.50;;;16.70;99.90;;;;;;5135945;27;20336;-68
2021/06/20 04:05:24;;;;;;;152.87;47.93;;;16.60;99.90;;;;;;5146047;27;20171;-68
2021/06/20 04:07:52;;;;;;;164.40;49.67;;;16.60;99.90;;;;;;5148983;27;20174;-68
2021/06/20 04:10:22;;;;;;;182.90;48.80;;;16.60;99.90;;;;;;5147699;27;20198;-68
2021/06/20 04:12:51;;;;;;;165.13;48.20;;;16.60;99.90;;;;;;5139887;27;20213;-68
2021/06/20 04:15:20;;;;;;;154.70;45.47;;;16.70;99.90;;;;;;5146758;27;20182;-68
2021/06/20 04:17:49;;;;;;;154.77;45.37;;;16.70;99.90;;;;;;5143839;27;20174;-68
2021/06/20 04:20:18;;;;;;;151.97;46.93;;;16.60;99.90;;;;;;5145206;27;20195;-68
2021/06/20 04:22:46;;;;;;;162.33;45.43;;;16.70;99.90;;;;;;5145647;27;20191;-68
2021/06/20 04:25:16;;;;;;;155.07;46.40;;;16.70;99.90;;;;;;5149623;27;20221;-68
2021/06/20 04:27:49;;;;;;;156.17;44.80;;;16.70;99.90;;;;;;5147125;27;20219;-68
2021/06/20 04:30:22;;;;;;;150.87;46.47;;;16.60;99.90;;;;;;5147542;27;20188;-68
2021/06/20 04:32:51;;;;;;;148.47;45.63;;;16.70;99.90;;;;;;5144783;27;20187;-67
2021/06/20 04:35:20;;;;;;;141.23;44.07;;;16.70;99.90;;;;;;5152803;27;20192;-68
2021/06/20 04:37:50;;;;;;;136.07;44.40;;;16.70;99.90;;;;;;5147466;27;20204;-68
2021/06/20 04:40:20;;;;;;;140.47;43.63;;;16.70;99.90;;;;;;5150325;27;20396;-68
2021/06/20 04:43:04;;;;;;;139.57;43.73;;;16.70;99.90;;;;;;5149081;27;20191;-68
2021/06/20 04:45:32;;;;;;;151.93;44.93;;;16.70;99.90;;;;;;5142735;27;20355;-68
2021/06/20 04:48:02;;;;;;;140.50;44.93;;;16.70;99.90;;;;;;5143648;27;20409;-68
2021/06/20 04:50:30;;;;;;;133.53;43.43;;;16.80;99.90;;;;;;5144526;27;20171;-68
2021/06/20 04:52:58;;;;;;;136.13;44.47;;;16.80;99.90;;;;;;5144256;27;20339;-67
2021/06/20 04:55:27;;;;;;;146.67;44.33;;;16.80;99.90;;;;;;5145603;27;20358;-68
2021/06/20 04:57:56;;;;;;;141.83;43.57;;;16.80;99.90;;;;;;5148171;27;20268;-68
2021/06/20 05:00:25;;;;;;;130.67;41.67;;;16.80;99.90;;;;;;5142098;27;20182;-67
2021/06/20 05:02:53;;;;;;;123.47;42.23;;;17.00;99.90;;;;;;5151488;27;20177;-68
2021/06/20 05:05:21;;;;;;;112.80;39.90;;;17.00;99.90;;;;;;5145086;27;20254;-68
2021/06/20 05:07:51;;;;;;;118.53;41.17;;;16.90;99.90;;;;;;5149459;27;20180;-67
2021/06/20 05:10:19;;;;;;;105.80;38.03;;;16.90;99.90;;;;;;5145784;27;20181;-67
2021/06/20 05:12:48;;;;;;;111.73;38.57;;;16.90;99.90;;;;;;5140042;27;20219;-68
2021/06/20 05:15:18;;;;;;;130.33;42.00;;;16.90;99.90;;;;;;5142439;27;20183;-68
2021/06/20 05:17:47;;;;;;;118.80;40.47;;;17.00;99.90;;;;;;5149258;27;20259;-68
2021/06/20 05:20:16;;;;;;;124.37;40.37;;;17.00;99.90;;;;;;5143844;27;20221;-67
2021/06/20 05:22:44;;;;;;;124.00;41.03;;;17.00;99.90;;;;;;5150736;27;20185;-68
2021/06/20 05:25:13;;;;;;;130.00;43.70;;;17.00;99.90;;;;;;5146777;27;20270;-68
2021/06/20 05:27:42;;;;;;;127.73;40.43;;;17.00;99.90;;;;;;5143078;27;20377;-67
2021/06/20 05:30:11;;;;;;;116.27;40.57;;;17.00;99.90;;;;;;5144901;27;20274;-68
2021/06/20 05:32:41;;;;;;;120.10;41.13;;;17.10;99.90;;;;;;5150319;27;20203;-68
2021/06/20 05:35:10;;;;;;;114.60;40.37;;;17.20;99.90;;;;;;5152307;27;20395;-68
2021/06/20 05:37:38;;;;;;;125.73;41.33;;;17.20;99.90;;;;;;5144959;27;20212;-68
2021/06/20 05:40:08;;;;;;;115.57;40.40;;;17.30;99.90;;;;;;5144414;27;20180;-68
2021/06/20 05:42:36;;;;;;;106.07;40.03;;;17.30;99.90;;;;;;5149756;27;20201;-68
2021/06/20 05:45:09;;;;;;;98.47;39.37;;;17.40;99.90;;;;;;5139962;27;20211;-68
2021/06/20 05:47:38;;;;;;;94.20;38.73;;;17.50;99.90;;;;;;5138687;27;20245;-68
2021/06/20 05:50:09;;;;;;;102.90;40.37;;;17.70;99.90;;;;;;5141693;27;20182;-68
2021/06/20 05:52:37;;;;;;;93.57;38.53;;;17.90;99.90;;;;;;5144206;27;20182;-68
2021/06/20 05:55:07;;;;;;;89.77;38.73;;;18.00;99.90;;;;;;5154381;27;20189;-69
2021/06/20 05:57:35;;;;;;;80.70;35.37;;;18.10;99.90;;;;;;5145377;27;20181;-69
2021/06/20 06:00:06;;;;;;;79.10;35.00;;;18.10;99.90;;;;;;5142722;27;20222;-67
2021/06/20 06:02:34;;;;;;;72.87;33.53;;;18.10;99.90;;;;;;5155118;27;20196;-69
2021/06/20 06:05:04;;;;;;;63.70;31.33;;;18.10;99.90;;;;;;5145326;27;20236;-67
2021/06/20 06:07:34;;;;;;;65.53;31.70;;;18.10;99.90;;;;;;5145975;27;20181;-69
2021/06/20 06:10:23;;;;;;;74.73;33.03;;;18.20;99.90;;;;;;5148156;27;20373;-67
2021/06/20 06:12:51;;;;;;;71.83;32.60;;;18.20;99.90;;;;;;5142030;27;20174;-66
2021/06/20 06:15:22;;;;;;;70.93;32.47;;;18.10;99.90;;;;;;5135900;27;20255;-67
2021/06/20 06:17:51;;;;;;;64.10;30.13;;;18.10;99.90;;;;;;5146486;27;20171;-68
2021/06/20 06:20:20;;;;;;;65.20;31.37;;;18.10;99.90;;;;;;5152997;27;20212;-68
2021/06/20 06:22:51;;;;;;;63.57;30.23;;;18.10;99.90;;;;;;5145797;27;20404;-68
2021/06/20 06:25:19;;;;;;;65.80;30.83;;;18.10;99.90;;;;;;5145098;27;20231;-68
2021/06/20 06:27:49;;;;;;;64.93;30.40;;;18.20;99.90;;;;;;5156534;27;20201;-68
2021/06/20 06:30:19;;;;;;;64.77;31.30;;;18.30;99.90;;;;;;5154000;27;20197;-67
2021/06/20 06:32:48;;;;;;;61.33;29.90;;;18.40;99.90;;;;;;5149667;27;20182;-69
2021/06/20 06:35:17;;;;;;;64.60;30.20;;;18.50;99.90;;;;;;5143302;27;20185;-68
2021/06/20 06:37:48;;;;;;;50.57;27.00;;;18.70;99.90;;;;;;5147862;27;20184;-68
2021/06/20 06:40:19;;;;;;;46.00;25.93;;;18.80;99.90;;;;;;5151503;27;20174;-67
2021/06/20 06:42:52;;;;;;;47.87;24.50;;;18.80;99.90;;;;;;5142532;27;20260;-68
2021/06/20 06:45:21;;;;;;;47.10;25.50;;;18.90;99.90;;;;;;5141850;27;20206;-68
2021/06/20 06:47:50;;;;;;;39.20;22.17;;;18.90;99.90;;;;;;5139480;27;20175;-68
2021/06/20 06:50:19;;;;;;;38.80;22.07;;;18.90;99.90;;;;;;5146003;27;20196;-68
2021/06/20 06:52:48;;;;;;;39.80;22.67;;;18.90;99.90;;;;;;5147594;27;20202;-68
2021/06/20 06:55:18;;;;;;;37.37;21.40;;;18.90;99.90;;;;;;5147822;27;20193;-68
2021/06/20 06:57:47;;;;;;;31.93;18.77;;;19.00;99.90;;;;;;5146388;27;20185;-68
2021/06/20 07:00:16;;;;;;;34.13;19.80;;;19.00;99.90;;;;;;5158624;27;20170;-68
2021/06/20 07:02:45;;;;;;;30.50;17.60;;;19.20;99.90;;;;;;5148696;27;20461;-68
2021/06/20 07:05:13;;;;;;;20.77;13.33;;;19.30;99.90;;;;;;5144019;27;20198;-67
2021/06/20 07:07:42;;;;;;;17.83;12.53;;;19.20;99.90;;;;;;5138300;27;20182;-68
2021/06/20 07:10:11;;;;;;;17.70;11.53;;;19.20;99.90;;;;;;5146081;27;20178;-66
2021/06/20 07:12:41;;;;;;;14.43;10.30;;;19.00;99.90;;;;;;5139855;27;20228;-67
2021/06/20 07:15:13;;;;;;;12.43;9.77;;;19.00;99.90;;;;;;5142725;27;20198;-68
2021/06/20 07:17:41;;;;;;;13.37;9.87;;;19.10;99.90;;;;;;5138290;27;20213;-67
2021/06/20 07:20:15;;;;;;;14.83;10.77;;;19.20;99.90;;;;;;5141089;27;20186;-67
2021/06/20 07:22:47;;;;;;;13.93;8.73;;;19.40;99.90;;;;;;5144770;27;20253;-67
2021/06/20 07:25:35;;;;;;;9.57;8.50;;;19.50;99.90;;;;;;5130523;27;20234;-68
2021/06/20 07:28:05;;;;;;;10.57;7.30;;;19.50;99.90;;;;;;5140338;27;20230;-68
2021/06/20 07:30:52;;;;;;;8.03;7.10;;;19.40;99.90;;;;;;5141624;27;20189;-67
2021/06/20 07:33:23;;;;;;;7.87;7.07;;;19.40;99.90;;;;;;5142612;27;20281;-67
2021/06/20 07:35:52;;;;;;;8.23;6.97;;;19.40;99.90;;;;;;5146176;27;20182;-68
2021/06/20 07:38:21;;;;;;;9.57;7.67;;;19.40;99.90;;;;;;5148905;27;20188;-67
2021/06/20 07:40:49;;;;;;;8.23;6.70;;;19.50;99.90;;;;;;5146194;27;20194;-67
2021/06/20 07:43:21;;;;;;;9.77;5.77;;;19.80;99.90;;;;;;5151940;27;20190;-67
2021/06/20 07:45:50;;;;;;;7.63;5.77;;;20.00;99.90;;;;;;5144614;27;20218;-67
2021/06/20 07:48:19;;;;;;;6.00;5.43;;;20.20;99.90;;;;;;5139134;27;20182;-67
2021/06/20 07:50:47;;;;;;;5.73;5.20;;;20.30;99.90;;;;;;5149474;27;20174;-65
2021/06/20 07:53:16;;;;;;;4.63;4.23;;;20.50;99.90;;;;;;5146805;27;20201;-67
2021/06/20 07:55:44;;;;;;;4.57;4.27;;;20.50;99.90;;;;;;5143483;27;20262;-67
2021/06/20 07:58:12;;;;;;;3.77;3.57;;;20.50;99.90;;;;;;5146881;27;20383;-64
2021/06/20 08:00:42;;;;;;;3.43;3.13;;;20.40;99.90;;;;;;5146354;27;20196;-67
2021/06/20 08:03:11;;;;;;;4.93;2.90;;;20.40;99.90;;;;;;5144615;27;20383;-67
2021/06/20 08:05:39;;;;;;;3.20;3.10;;;20.30;99.90;;;;;;5144759;27;20249;-66
2021/06/20 08:08:07;;;;;;;3.33;3.03;;;20.30;99.90;;;;;;5144523;27;20178;-66
2021/06/20 08:10:36;;;;;;;3.23;3.03;;;20.40;99.90;;;;;;5147868;27;20182;-67
2021/06/20 08:13:04;;;;;;;3.63;2.13;;;20.50;99.90;;;;;;5145508;27;20223;-67
2021/06/20 08:15:33;;;;;;;2.70;2.50;;;20.60;99.90;;;;;;5146313;27;20204;-66
2021/06/20 08:18:03;;;;;;;2.10;1.93;;;20.70;99.90;;;;;;5143903;27;20270;-67
2021/06/20 08:20:31;;;;;;;2.07;1.93;;;20.80;99.90;;;;;;5144817;27;20174;-67
2021/06/20 08:23:00;;;;;;;2.20;2.10;;;20.90;99.90;;;;;;5144572;27;20243;-65
2021/06/20 08:25:28;;;;;;;2.10;2.00;;;21.00;99.90;;;;;;5151899;27;20221;-67
2021/06/20 08:27:56;;;;;;;2.70;2.50;;;21.20;99.90;;;;;;5146698;27;20175;-66
2021/06/20 08:30:25;;;;;;;2.33;2.23;;;21.30;99.90;;;;;;5143083;27;20184;-67
2021/06/20 08:32:53;;;;;;;2.00;2.00;;;21.40;99.90;;;;;;5143495;27;20179;-64
2021/06/20 08:35:23;;;;;;;4.53;2.00;;;21.40;99.90;;;;;;5147754;27;20192;-66
2021/06/20 08:37:52;;;;;;;1.90;1.77;;;21.60;99.90;;;;;;5143431;27;20182;-67
2021/06/20 08:40:21;;;;;;;2.03;1.93;;;21.70;99.90;;;;;;5165204;27;20194;-66
2021/06/20 08:42:49;;;;;;;1.97;1.77;;;21.90;99.90;;;;;;5144476;27;20279;-66
2021/06/20 08:45:18;;;;;;;1.90;1.90;;;22.10;99.90;;;;;;5155202;27;20214;-66
2021/06/20 08:47:47;;;;;;;1.60;1.50;;;22.10;99.90;;;;;;5138257;27;20177;-66
2021/06/20 08:50:15;;;;;;;2.33;1.63;;;22.00;99.90;;;;;;5144770;27;20178;-67
2021/06/20 08:52:46;;;;;;;1.60;1.60;;;22.00;99.90;;;;;;5144965;27;20259;-66
2021/06/20 08:55:15;;;;;;;1.97;1.87;;;22.00;99.90;;;;;;5145933;27;20386;-66
2021/06/20 08:57:46;;;;;;;1.63;1.53;;;22.10;99.90;;;;;;5145763;27;20176;-66
2021/06/20 09:00:17;;;;;;;2.50;1.77;;;22.20;99.90;;;;;;5144878;27;20201;-67
2021/06/20 09:02:57;;;;;;;2.17;1.50;;;22.40;99.90;;;;;;5149113;27;20174;-66
2021/06/20 09:05:25;;;;;;;3.40;1.50;;;22.70;99.90;;;;;;5139296;27;20246;-65
2021/06/20 09:07:55;;;;;;;2.10;1.70;;;22.70;99.90;;;;;;5144168;27;20198;-66
2021/06/20 09:10:28;;;;;;;1.70;1.60;;;22.70;99.90;;;;;;5154778;27;20225;-65
2021/06/20 09:12:58;;;;;;;1.70;1.60;;;22.50;99.90;;;;;;5153570;27;20170;-67
2021/06/20 09:15:28;;;;;;;2.10;1.60;;;22.50;99.90;;;;;;5146145;27;20186;-67
2021/06/20 09:17:58;;;;;;;3.90;1.47;;;22.60;99.90;;;;;;5143969;27;20216;-67
2021/06/20 09:20:35;;;;;;;3.17;1.30;;;22.70;99.90;;;;;;5141888;27;20211;-66
2021/06/20 09:23:08;;;;;;;1.47;1.40;;;22.50;99.90;;;;;;5144241;27;20322;-67
2021/06/20 09:25:39;;;;;;;2.00;1.30;;;22.40;99.90;;;;;;5144996;27;20248;-66
2021/06/20 09:28:09;;;;;;;2.53;1.57;;;22.20;99.90;;;;;;5144115;27;20185;-66
2021/06/20 09:30:47;;;;;;;1.60;1.50;;;21.90;99.90;;;;;;5132349;27;20193;-65
2021/06/20 09:33:16;;;;;;;1.40;1.30;;;22.10;99.90;;;;;;5145136;27;21967;-67
2021/06/20 09:35:46;;;;;;;3.37;1.60;;;22.30;99.90;;;;;;5146205;27;20193;-67
2021/06/20 09:38:21;;;;;;;1.77;1.67;;;22.60;99.90;;;;;;5145412;27;20174;-67
2021/06/20 09:40:52;;;;;;;1.40;1.40;;;22.80;99.90;;;;;;5156677;27;20201;-66
2021/06/20 09:43:21;;;;;;;3.57;1.50;;;23.20;99.90;;;;;;5148949;27;20179;-67
2021/06/20 09:45:50;;;;;;;2.20;1.60;;;23.30;99.90;;;;;;5146444;27;20213;-65
2021/06/20 09:48:23;;;;;;;1.70;1.30;;;23.30;99.90;;;;;;5142932;27;20174;-67
2021/06/20 09:50:53;;;;;;;1.27;1.27;;;23.30;99.90;;;;;;5142747;27;20213;-67
2021/06/20 09:53:33;;;;;;;1.43;1.33;;;23.30;99.90;;;;;;5145245;27;20182;-66
2021/06/20 09:56:28;;;;;;;1.40;1.30;;;23.40;99.90;;;;;;5138991;27;20206;-66
2021/06/20 09:58:58;;;;;;;4.63;1.53;;;23.30;99.90;;;;;;5129168;27;20386;-67
2021/06/20 10:01:28;;;;;;;1.60;1.30;;;23.10;99.90;;;;;;5148180;27;20175;-67
2021/06/20 10:03:57;;;;;;;1.57;1.47;;;23.00;99.90;;;;;;5146759;27;20180;-66
2021/06/20 10:06:26;;;;;;;1.40;1.40;;;22.90;99.90;;;;;;5146602;27;20207;-67
2021/06/20 10:08:56;;;;;;;2.40;1.63;;;23.10;99.90;;;;;;5141293;27;20212;-67
2021/06/20 10:11:25;;;;;;;1.10;1.10;;;23.20;99.90;;;;;;5148670;27;20383;-67
2021/06/20 10:13:53;;;;;;;1.30;1.30;;;23.40;99.90;;;;;;5143919;27;20203;-66
2021/06/20 10:16:25;;;;;;;1.60;1.00;;;23.60;99.90;;;;;;5141897;27;20279;-66
2021/06/20 10:18:57;;;;;;;1.40;1.20;;;23.60;99.90;;;;;;5142477;27;20275;-65
2021/06/20 10:21:30;;;;;;;1.10;1.03;;;23.60;99.90;;;;;;5146751;27;20280;-67
2021/06/20 10:24:13;;;;;;;2.03;1.53;;;23.70;99.90;;;;;;5146505;27;20190;-67
2021/06/20 10:26:45;;;;;;;1.90;1.30;;;23.80;99.90;;;;;;5101364;28;20360;-65
2021/06/20 10:29:19;;;;;;;3.30;1.77;;;24.00;99.90;;;;;;5101869;28;20184;-66
2021/06/20 10:31:48;;;;;;;1.40;1.40;;;24.00;99.90;;;;;;5113097;28;20392;-67
2021/06/20 10:34:23;;;;;;;1.30;1.30;;;23.80;99.90;;;;;;5106495;28;20191;-67
2021/06/20 10:36:53;;;;;;;1.80;1.40;;;23.90;99.90;;;;;;5105943;28;20186;-66
2021/06/20 10:39:25;;;;;;;2.30;1.50;;;23.70;99.90;;;;;;5104734;28;20189;-66
2021/06/20 10:42:05;;;;;;;1.40;1.40;;;23.40;99.90;;;;;;5106048;28;20199;-66
2021/06/20 10:44:49;;;;;;;1.53;1.53;;;23.40;99.90;;;;;;5108610;28;20197;-67
2021/06/20 10:47:28;;;;;;;1.93;1.83;;;23.40;99.90;;;;;;5112994;28;20210;-66
2021/06/20 10:49:58;;;;;;;1.83;1.50;;;23.50;99.90;;;;;;5102261;28;20195;-66
2021/06/20 10:52:26;;;;;;;1.67;1.57;;;23.80;99.90;;;;;;5110087;28;20184;-67
2021/06/20 10:55:07;;;;;;;3.10;1.40;;;24.00;99.90;;;;;;5105095;28;20326;-66
2021/06/20 10:57:44;;;;;;;1.30;1.30;;;24.30;99.90;;;;;;5104165;28;20181;-66
2021/06/20 11:00:13;;;;;;;1.60;1.60;;;24.50;99.90;;;;;;5103588;28;20182;-67
2021/06/20 11:02:42;;;;;;;1.43;1.43;;;24.70;99.90;;;;;;5105377;28;20186;-66
2021/06/20 11:05:22;;;;;;;1.97;1.87;;;24.80;99.90;;;;;;5099437;28;20417;-66
2021/06/20 11:07:51;;;;;;;2.47;2.30;;;25.30;99.90;;;;;;5105019;28;20221;-66
2021/06/20 11:10:24;;;;;;;2.00;1.90;;;25.40;99.90;;;;;;5101847;28;20191;-66
2021/06/20 11:12:56;;;;;;;1.60;1.50;;;25.40;99.90;;;;;;5101620;28;20180;-66
2021/06/20 11:15:27;;;;;;;1.70;1.70;;;25.30;99.90;;;;;;5102039;28;20199;-66
2021/06/20 11:18:05;;;;;;;1.80;1.70;;;25.10;99.90;;;;;;5105263;28;20190;-66
2021/06/20 11:20:34;;;;;;;3.20;1.90;;;24.70;99.90;;;;;;5106583;28;20196;-67
2021/06/20 11:23:04;;;;;;;1.80;1.80;;;24.40;99.90;;;;;;5111896;28;20178;-66
2021/06/20 11:25:33;;;;;;;1.60;1.60;;;24.20;99.90;;;;;;5127888;27;20231;-66
2021/06/20 11:28:02;;;;;;;1.80;1.80;;;24.00;99.90;;;;;;5154374;27;20288;-66
2021/06/20 11:30:30;;;;;;;2.00;2.00;;;24.00;99.90;;;;;;5144478;27;20463;-66
2021/06/20 11:32:59;;;;;;;2.23;2.13;;;24.00;99.90;;;;;;5145170;27;20176;-67
2021/06/20 11:35:28;;;;;;;1.73;1.73;;;24.00;99.90;;;;;;5140662;27;20255;-66
2021/06/20 11:37:58;;;;;;;2.80;2.00;;;24.00;99.90;;;;;;5141712;27;20177;-66
2021/06/20 11:40:27;;;;;;;2.00;1.90;;;23.90;99.90;;;;;;5144339;27;20249;-66
2021/06/20 11:42:58;;;;;;;2.47;2.10;;;24.10;99.90;;;;;;5150583;27;20176;-66
2021/06/20 11:45:30;;;;;;;3.37;1.97;;;24.40;99.90;;;;;;5143158;27;20327;-66
2021/06/20 11:48:02;;;;;;;2.43;2.10;;;24.50;99.90;;;;;;5144040;27;20205;-66
2021/06/20 11:50:32;;;;;;;2.10;2.00;;;24.80;99.90;;;;;;5148542;27;20206;-66
2021/06/20 11:53:02;;;;;;;1.90;1.87;;;25.00;99.90;;;;;;5143990;27;20212;-66
2021/06/20 11:55:33;;;;;;;2.00;2.00;;;25.30;99.90;;;;;;5139611;27;20319;-66
2021/06/20 11:58:05;;;;;;;1.80;1.80;;;25.40;99.90;;;;;;5136886;27;20182;-66
2021/06/20 12:00:37;;;;;;;2.10;2.00;;;25.50;99.90;;;;;;5142363;27;20410;-66
2021/06/20 12:03:07;;;;;;;1.60;1.60;;;25.50;99.90;;;;;;5136777;27;20202;-66
2021/06/20 12:05:36;;;;;;;2.97;1.60;;;25.50;99.90;;;;;;5137983;27;20192;-66
2021/06/20 12:08:06;;;;;;;2.83;1.90;;;25.20;99.90;;;;;;5137883;27;20223;-65
2021/06/20 12:10:39;;;;;;;1.87;1.77;;;25.10;99.90;;;;;;5136889;27;20197;-66
2021/06/20 12:13:10;;;;;;;2.40;1.83;;;24.90;99.90;;;;;;5137086;27;20200;-66
2021/06/20 12:15:40;;;;;;;1.93;1.93;;;25.00;99.90;;;;;;5138602;27;20272;-66
2021/06/20 12:18:10;;;;;;;1.77;1.77;;;25.30;99.90;;;;;;5137294;27;20177;-65
2021/06/20 12:20:40;;;;;;;2.50;2.10;;;25.60;99.90;;;;;;5136349;27;20255;-66
2021/06/20 12:23:21;;;;;;;2.10;2.00;;;25.40;99.90;;;;;;5136292;27;20194;-66
2021/06/20 12:25:51;;;;;;;1.90;1.90;;;25.20;99.90;;;;;;5136555;27;20233;-66
2021/06/20 12:28:21;;;;;;;2.83;2.07;;;25.10;99.90;;;;;;5135307;27;20657;-67
2021/06/20 12:30:53;;;;;;;2.00;1.90;;;25.20;99.90;;;;;;5136327;27;20196;-65
2021/06/20 12:33:26;;;;;;;1.97;1.87;;;25.20;99.90;;;;;;5138707;27;20192;-66
2021/06/20 12:35:58;;;;;;;2.00;1.90;;;25.20;99.90;;;;;;5135926;27;20219;-66
2021/06/20 12:38:29;;;;;;;1.57;1.57;;;25.30;99.90;;;;;;5137371;27;20242;-66
2021/06/20 12:40:58;;;;;;;3.30;1.70;;;25.50;99.90;;;;;;5135302;27;20190;-66
2021/06/20 12:43:30;;;;;;;2.07;1.90;;;25.50;99.90;;;;;;5136048;27;20177;-66
2021/06/20 12:46:00;;;;;;;2.00;2.00;;;25.30;99.90;;;;;;5138796;27;20380;-66
2021/06/20 12:48:35;;;;;;;2.00;1.90;;;25.20;99.90;;;;;;5138347;27;20433;-66